Map

Track Data

SID SEASON NUMBER BASIN SUBBASIN NAME ISO_TIME NATURE LAT LON WMO_WIND WMO_PRES WMO_AGENCY TRACK_TYPE DIST2LAND LANDFALL IFLAG USA_AGENCY USA_ATCF_ID USA_LAT USA_LON USA_RECORD USA_STATUS USA_WIND USA_PRES USA_SSHS USA_R34_NE USA_R34_SE USA_R34_SW USA_R34_NW USA_R50_NE USA_R50_SE USA_R50_SW USA_R50_NW USA_R64_NE USA_R64_SE USA_R64_SW USA_R64_NW USA_POCI USA_ROCI USA_RMW USA_EYE TOKYO_LAT TOKYO_LON TOKYO_GRADE TOKYO_WIND TOKYO_PRES TOKYO_R50_DIR TOKYO_R50_LONG TOKYO_R50_SHORT TOKYO_R30_DIR TOKYO_R30_LONG TOKYO_R30_SHORT TOKYO_LAND CMA_LAT CMA_LON CMA_CAT CMA_WIND CMA_PRES HKO_LAT HKO_LON HKO_CAT HKO_WIND HKO_PRES NEWDELHI_LAT NEWDELHI_LON NEWDELHI_GRADE NEWDELHI_WIND NEWDELHI_PRES NEWDELHI_CI NEWDELHI_DP NEWDELHI_POCI REUNION_LAT REUNION_LON REUNION_TYPE REUNION_WIND REUNION_PRES REUNION_TNUM REUNION_CI REUNION_RMW REUNION_R34_NE REUNION_R34_SE REUNION_R34_SW REUNION_R34_NW REUNION_R50_NE REUNION_R50_SE REUNION_R50_SW REUNION_R50_NW REUNION_R64_NE REUNION_R64_SE REUNION_R64_SW REUNION_R64_NW BOM_LAT BOM_LON BOM_TYPE BOM_WIND BOM_PRES BOM_TNUM BOM_CI BOM_RMW BOM_R34_NE BOM_R34_SE BOM_R34_SW BOM_R34_NW BOM_R50_NE BOM_R50_SE BOM_R50_SW BOM_R50_NW BOM_R64_NE BOM_R64_SE BOM_R64_SW BOM_R64_NW BOM_ROCI BOM_POCI BOM_EYE BOM_POS_METHOD BOM_PRES_METHOD NADI_LAT NADI_LON NADI_CAT NADI_WIND NADI_PRES WELLINGTON_LAT WELLINGTON_LON WELLINGTON_WIND WELLINGTON_PRES DS824_LAT DS824_LON DS824_STAGE DS824_WIND DS824_PRES TD9636_LAT TD9636_LON TD9636_STAGE TD9636_WIND TD9636_PRES TD9635_LAT TD9635_LON TD9635_WIND TD9635_PRES TD9635_ROCI NEUMANN_LAT NEUMANN_LON NEUMANN_CLASS NEUMANN_WIND NEUMANN_PRES MLC_LAT MLC_LON MLC_CLASS MLC_WIND MLC_PRES USA_GUST BOM_GUST BOM_GUST_PER REUNION_GUST REUNION_GUST_PER USA_SEAHGT USA_SEARAD_NE USA_SEARAD_SE USA_SEARAD_SW USA_SEARAD_NW STORM_SPEED STORM_DIR
1934324N23299 1934 80 NA NA NOT_NAMED 1934-11-20 06:00:00 TS 22.7000 -60.7000 35 hurdat_atl main 700 700 O_____________ hurdat_atl AL131934 22.7000 -60.7000 TS 35 0 2 343
1934324N23299 1934 80 NA NA NOT_NAMED 1934-11-20 09:00:00 TS 22.8000 -60.7500 main 708 701 P_____________ AL131934 22.8000 -60.7500 TS 35 0 2 335
1934324N23299 1934 80 NA NA NOT_NAMED 1934-11-20 12:00:00 TS 22.9000 -60.8000 35 hurdat_atl main 708 708 O_____________ hurdat_atl AL131934 22.9000 -60.8000 TS 35 0 2 335
1934324N23299 1934 80 NA NA NOT_NAMED 1934-11-20 15:00:00 TS 23.0000 -60.8500 main 716 709 P_____________ AL131934 23.0000 -60.8500 TS 35 0 2 335
1934324N23299 1934 80 NA NA NOT_NAMED 1934-11-20 18:00:00 TS 23.1000 -60.9000 35 hurdat_atl main 717 717 O_____________ hurdat_atl AL131934 23.1000 -60.9000 TS 35 0 2 335
1934324N23299 1934 80 NA NA NOT_NAMED 1934-11-20 21:00:00 TS 23.2000 -60.9500 main 718 718 P_____________ AL131934 23.2000 -60.9500 TS 37 0 2 335
1934324N23299 1934 80 NA NA NOT_NAMED 1934-11-21 00:00:00 TS 23.3000 -61.0000 40 hurdat_atl main 726 726 O_____________ hurdat_atl AL131934 23.3000 -61.0000 TS 40 0 2 335
1934324N23299 1934 80 NA NA NOT_NAMED 1934-11-21 03:00:00 TS 23.4000 -61.0500 main 735 728 P_____________ AL131934 23.4000 -61.0500 TS 40 0 2 335
1934324N23299 1934 80 NA NA NOT_NAMED 1934-11-21 06:00:00 TS 23.5000 -61.1000 40 hurdat_atl main 737 737 O_____________ hurdat_atl AL131934 23.5000 -61.1000 TS 40 0 2 335
1934324N23299 1934 80 NA NA NOT_NAMED 1934-11-21 09:00:00 TS 23.5925 -61.1425 main 745 739 P_____________ AL131934 23.5925 -61.1425 TS 42 0 2 335
1934324N23299 1934 80 NA NA NOT_NAMED 1934-11-21 12:00:00 TS 23.7000 -61.2000 45 hurdat_atl main 747 747 O_____________ hurdat_atl AL131934 23.7000 -61.2000 TS 45 0 3 330
1934324N23299 1934 80 NA NA NOT_NAMED 1934-11-21 15:00:00 TS 23.8350 -61.2925 main 750 750 P_____________ AL131934 23.8350 -61.2925 TS 45 0 4 329
1934324N23299 1934 80 NA NA NOT_NAMED 1934-11-21 18:00:00 TS 24.0000 -61.4000 45 hurdat_atl main 762 762 O_____________ hurdat_atl AL131934 24.0000 -61.4000 TS 45 0 4 332
1934324N23299 1934 80 NA NA NOT_NAMED 1934-11-21 21:00:00 TS 24.1925 -61.5000 main 775 775 P_____________ AL131934 24.1925 -61.5000 TS 47 0 4 336
1934324N23299 1934 80 NA NA NOT_NAMED 1934-11-22 00:00:00 TS 24.4000 -61.6000 50 hurdat_atl main 788 788 O_____________ hurdat_atl AL131934 24.4000 -61.6000 TS 50 0 4 336
1934324N23299 1934 80 NA NA NOT_NAMED 1934-11-22 03:00:00 TS 24.6000 -61.7000 main 801 801 P_____________ AL131934 24.6000 -61.7000 TS 52 0 4 336
1934324N23299 1934 80 NA NA NOT_NAMED 1934-11-22 06:00:00 TS 24.8000 -61.8000 55 hurdat_atl main 816 816 O_____________ hurdat_atl AL131934 24.8000 -61.8000 TS 55 0 4 339
1934324N23299 1934 80 NA NA NOT_NAMED 1934-11-22 09:00:00 TS 25.0074 -61.8701 main 830 830 P_____________ AL131934 25.0074 -61.8701 TS 57 0 4 336
1934324N23299 1934 80 NA NA NOT_NAMED 1934-11-22 12:00:00 TS 25.2000 -62.0000 60 hurdat_atl main 846 841 O_____________ hurdat_atl AL131934 25.2000 -62.0000 TS 60 0 5 317
1934324N23299 1934 80 NA NA NOT_NAMED 1934-11-22 15:00:00 TS 25.3648 -62.2400 main 857 849 P_____________ AL131934 25.3648 -62.2400 TS 62 0 6 299
1934324N23299 1934 80 NA NA NOT_NAMED 1934-11-22 18:00:00 TS 25.5000 -62.6000 65 hurdat_atl main 851 844 O_____________ hurdat_atl AL131934 25.5000 -62.6000 HU 65 1 8 288
1934324N23299 1934 80 NA NA NOT_NAMED 1934-11-22 21:00:00 TS 25.6000 -63.0627 main 845 839 P_____________ AL131934 25.6000 -63.0627 HU 70 1 9 282
1934324N23299 1934 80 NA NA NOT_NAMED 1934-11-23 00:00:00 TS 25.7000 -63.6000 75 hurdat_atl main 841 836 O_____________ hurdat_atl AL131934 25.7000 -63.6000 HU 75 1 10 284
1934324N23299 1934 80 NA NA NOT_NAMED 1934-11-23 03:00:00 TS 25.8425 -64.1500 main 841 841 P_____________ AL131934 25.8425 -64.1500 HU 80 1 10 287
1934324N23299 1934 80 NA NA NOT_NAMED 1934-11-23 06:00:00 TS 26.0000 -64.7000 85 hurdat_atl main 854 853 O_____________ hurdat_atl AL131934 26.0000 -64.7000 HU 85 2 10 288
1934324N23299 1934 80 NA NA NOT_NAMED 1934-11-23 09:00:00 TS 26.1499 -65.2226 main 861 861 P_____________ AL131934 26.1499 -65.2226 HU 90 2 9 288
1934324N23299 1934 80 NA NA NOT_NAMED 1934-11-23 12:00:00 TS 26.3000 -65.7000 95 hurdat_atl main 864 858 O_____________ hurdat_atl AL131934 26.3000 -65.7000 HU 95 2 9 290
1934324N23299 1934 80 NA NA NOT_NAMED 1934-11-23 15:00:00 TS 26.4423 -66.1227 main 858 854 P_____________ AL131934 26.4423 -66.1227 HU 97 3 8 293
1934324N23299 1934 80 NA NA NOT_NAMED 1934-11-23 18:00:00 TS 26.6000 -66.5000 100 hurdat_atl main 860 856 O_____________ hurdat_atl AL131934 26.6000 -66.5000 HU 100 3 8 297
1934324N23299 1934 80 NA NA NOT_NAMED 1934-11-23 21:00:00 TS 26.7925 -66.8874 main 864 861 P_____________ AL131934 26.7925 -66.8874 HU 100 3 7 303
1934324N23299 1934 80 NA NA NOT_NAMED 1934-11-24 00:00:00 TS 27.0000 -67.2000 100 hurdat_atl main 875 868 O_____________ hurdat_atl AL131934 27.0000 -67.2000 HU 100 3 6 311
1934324N23299 1934 80 NA NA NOT_NAMED 1934-11-24 03:00:00 TS 27.1924 -67.3951 main 878 878 P_____________ AL131934 27.1924 -67.3951 HU 97 3 5 326
1934324N23299 1934 80 NA NA NOT_NAMED 1934-11-24 06:00:00 TS 27.4000 -67.5000 95 hurdat_atl main 888 888 O_____________ hurdat_atl AL131934 27.4000 -67.5000 HU 95 2 5 340
1934324N23299 1934 80 NA NA NOT_NAMED 1934-11-24 09:00:00 TS 27.6275 -67.5725 main 899 899 P_____________ AL131934 27.6275 -67.5725 HU 95 2 5 350
1934324N23299 1934 80 NA NA NOT_NAMED 1934-11-24 12:00:00 TS 27.9000 -67.6000 95 hurdat_atl main 926 926 O_____________ hurdat_atl AL131934 27.9000 -67.6000 HU 95 2 6 355
1934324N23299 1934 80 NA NA NOT_NAMED 1934-11-24 15:00:00 TS 28.2200 -67.6298 main 953 953 P_____________ AL131934 28.2200 -67.6298 HU 92 2 7 0
1934324N23299 1934 80 NA NA NOT_NAMED 1934-11-24 18:00:00 TS 28.6000 -67.6000 90 hurdat_atl main 989 989 O_____________ hurdat_atl AL131934 28.6000 -67.6000 HU 90 2 8 8
1934324N23299 1934 80 NA NA NOT_NAMED 1934-11-24 21:00:00 TS 29.0349 -67.5023 main 1031 1031 P_____________ AL131934 29.0349 -67.5023 HU 87 2 9 16
1934324N23299 1934 80 NA NA NOT_NAMED 1934-11-25 00:00:00 TS 29.5000 -67.3000 85 hurdat_atl main 1037 1022 O_____________ hurdat_atl AL131934 29.5000 -67.3000 HU 85 2 10 26
1934324N23299 1934 80 NA NA NOT_NAMED 1934-11-25 03:00:00 TS 29.9726 -66.9803 main 1021 1021 P_____________ AL131934 29.9726 -66.9803 HU 82 1 11 34
1934324N23299 1934 80 NA NA NOT_NAMED 1934-11-25 06:00:00 TS 30.4000 -66.6000 80 hurdat_atl main 1022 1022 O_____________ hurdat_atl AL131934 30.4000 -66.6000 HU 80 1 10 40
1934324N23299 1934 80 NA NA NOT_NAMED 1934-11-25 09:00:00 TS 30.7450 -66.2274 main 1032 1026 P_____________ AL131934 30.7450 -66.2274 HU 77 1 9 45
1934324N23299 1934 80 NA NA NOT_NAMED 1934-11-25 12:00:00 TS 31.0000 -65.9000 75 hurdat_atl main 1037 1037 O_____________ hurdat_atl AL131934 31.0000 -65.9000 HU 75 1 7 44
1934324N23299 1934 80 NA NA NOT_NAMED 1934-11-25 15:00:00 TS 31.2173 -65.6849 main 1041 1041 P_____________ AL131934 31.2173 -65.6849 HU 75 1 5 49
1934324N23299 1934 80 NA NA NOT_NAMED 1934-11-25 18:00:00 TS 31.3000 -65.5000 75 hurdat_atl main 1051 1051 O_____________ hurdat_atl AL131934 31.3000 -65.5000 HU 75 1 5 81
1934324N23299 1934 80 NA NA NOT_NAMED 1934-11-25 21:00:00 TS 31.2850 -65.1586 main 1075 1075 P_____________ AL131934 31.2850 -65.1586 HU 72 1 5 125
1934324N23299 1934 80 NA NA NOT_NAMED 1934-11-26 00:00:00 TS 31.0000 -65.0000 70 hurdat_atl main 1109 1109 O_____________ hurdat_atl AL131934 31.0000 -65.0000 HU 70 1 10 187
1934324N23299 1934 80 NA NA NOT_NAMED 1934-11-26 03:00:00 TS 30.3401 -65.2887 main 1128 1127 P_____________ AL131934 30.3401 -65.2887 HU 70 1 17 205
1934324N23299 1934 80 NA NA NOT_NAMED 1934-11-26 06:00:00 TS 29.5000 -65.8000 70 hurdat_atl main 1145 1090 O_____________ hurdat_atl AL131934 29.5000 -65.8000 HU 70 1 18 208
1934324N23299 1934 80 NA NA NOT_NAMED 1934-11-26 09:00:00 TS 28.7346 -66.2543 main 1075 984 P_____________ AL131934 28.7346 -66.2543 HU 67 1 17 210
1934324N23299 1934 80 NA NA NOT_NAMED 1934-11-26 12:00:00 TS 28.0000 -66.8000 65 hurdat_atl main 984 895 O_____________ hurdat_atl AL131934 28.0000 -66.8000 HU 65 1 18 217
1934324N23299 1934 80 NA NA NOT_NAMED 1934-11-26 15:00:00 TS 27.3276 -67.4696 main 880 784 P_____________ AL131934 27.3276 -67.4696 HU 62 0 18 224
1934324N23299 1934 80 NA NA NOT_NAMED 1934-11-26 18:00:00 TS 26.7000 -68.2000 60 hurdat_atl main 784 682 O_____________ hurdat_atl AL131934 26.7000 -68.2000 TS 60 0 18 228
1934324N23299 1934 80 NA NA NOT_NAMED 1934-11-26 21:00:00 TS 26.1156 -68.9903 main 682 592 P_____________ AL131934 26.1156 -68.9903 TS 60 0 17 226
1934324N23299 1934 80 NA NA NOT_NAMED 1934-11-27 00:00:00 TS 25.5000 -69.6000 60 hurdat_atl main 592 518 O_____________ hurdat_atl AL131934 25.5000 -69.6000 TS 60 0 15 208
1934324N23299 1934 80 NA NA NOT_NAMED 1934-11-27 03:00:00 TS 24.7719 -69.7885 main 518 453 P_____________ AL131934 24.7719 -69.7885 TS 57 0 15 187
1934324N23299 1934 80 NA NA NOT_NAMED 1934-11-27 06:00:00 TS 24.0000 -69.8000 55 hurdat_atl main 453 387 O_____________ hurdat_atl AL131934 24.0000 -69.8000 TS 55 0 16 184
1934324N23299 1934 80 NA NA NOT_NAMED 1934-11-27 09:00:00 TS 23.1825 -69.9000 main 387 308 P_____________ AL131934 23.1825 -69.9000 TS 52 0 15 187
1934324N23299 1934 80 NA NA NOT_NAMED 1934-11-27 12:00:00 TS 22.5000 -70.0000 50 hurdat_atl main 308 262 O_____________ hurdat_atl AL131934 22.5000 -70.0000 TS 50 0 11 190
1934324N23299 1934 80 NA NA NOT_NAMED 1934-11-27 15:00:00 TS 22.1250 -70.0998 main 262 238 P_____________ AL131934 22.1250 -70.0998 TS 50 0 6 197
1934324N23299 1934 80 NA NA NOT_NAMED 1934-11-27 18:00:00 TS 21.9000 -70.2000 50 hurdat_atl main 238 214 O_____________ hurdat_atl AL131934 21.9000 -70.2000 TS 50 0 5 201
1934324N23299 1934 80 NA NA NOT_NAMED 1934-11-27 21:00:00 TS 21.6425 -70.2999 main 203 180 P_____________ AL131934 21.6425 -70.2999 TS 47 0 5 200
1934324N23299 1934 80 NA NA NOT_NAMED 1934-11-28 00:00:00 TS 21.4000 -70.4000 45 hurdat_atl main 180 156 O_____________ hurdat_atl AL131934 21.4000 -70.4000 TS 45 0 5 201
1934324N23299 1934 80 NA NA NOT_NAMED 1934-11-28 03:00:00 TS 21.1575 -70.5000 main 156 123 P_____________ AL131934 21.1575 -70.5000 TS 45 0 5 200
1934324N23299 1934 80 NA NA NOT_NAMED 1934-11-28 06:00:00 TS 20.9000 -70.6000 45 hurdat_atl main 123 89 O_____________ hurdat_atl AL131934 20.9000 -70.6000 TS 45 0 6 199
1934324N23299 1934 80 NA NA NOT_NAMED 1934-11-28 09:00:00 TS 20.6075 -70.7000 main 89 55 P_____________ AL131934 20.6075 -70.7000 TS 42 0 6 197
1934324N23299 1934 80 NA NA NOT_NAMED 1934-11-28 12:00:00 TS 20.3000 -70.8000 40 hurdat_atl main 55 22 O_____________ hurdat_atl AL131934 20.3000 -70.8000 TS 40 0 7 196
1934324N23299 1934 80 NA NA NOT_NAMED 1934-11-28 15:00:00 TS 19.9850 -70.8849 main 22 0 P_____________ AL131934 19.9850 -70.8849 TS 35 0 6 198
1934324N23299 1934 80 NA NA NOT_NAMED 1934-11-28 18:00:00 TS 19.7000 -71.0000 30 hurdat_atl main 0 0 O_____________ hurdat_atl AL131934 19.7000 -71.0000 TD 30 -1 6 208
1934324N23299 1934 80 NA NA NOT_NAMED 1934-11-28 21:00:00 TS 19.4849 -71.1624 main 0 0 P_____________ AL131934 19.4849 -71.1624 TD 27 -1 6 223
1934324N23299 1934 80 NA NA NOT_NAMED 1934-11-29 00:00:00 TS 19.3000 -71.4000 25 hurdat_atl main 0 0 O_____________ hurdat_atl AL131934 19.3000 -71.4000 TD 25 -1 6 233
1934324N23299 1934 80 NA NA NOT_NAMED 1934-11-29 03:00:00 TS 19.0999 -71.7124 main 0 0 P_____________ AL131934 19.0999 -71.7124 TD 25 -1 8 239
1934324N23299 1934 80 NA NA NOT_NAMED 1934-11-29 06:00:00 TS 18.9000 -72.1000 25 hurdat_atl main 0 0 O_____________ hurdat_atl AL131934 18.9000 -72.1000 TD 25 -1 9 244
1934324N23299 1934 80 NA CS NOT_NAMED 1934-11-29 09:00:00 TS 18.7150 -72.5348 main 11 11 P_____________ AL131934 18.7150 -72.5348 TD 25 -1 9 245
1934324N23299 1934 80 NA CS NOT_NAMED 1934-11-29 12:00:00 TS 18.5000 -73.0000 25 hurdat_atl main 11 0 O_____________ hurdat_atl AL131934 18.5000 -73.0000 TD 25 -1 10 240
1934324N23299 1934 80 NA CS NOT_NAMED 1934-11-29 15:00:00 TS 18.2148 -73.4424 main 0 0 P_____________ AL131934 18.2148 -73.4424 TD 25 -1 10 235
1934324N23299 1934 80 NA CS NOT_NAMED 1934-11-29 18:00:00 TS 17.9000 -73.9000 25 hurdat_atl main 11 11 O_____________ hurdat_atl AL131934 17.9000 -73.9000 TD 25 -1 11 235
1934324N23299 1934 80 NA CS NOT_NAMED 1934-11-29 21:00:00 TS 17.5924 -74.3924 main 69 69 P_____________ AL131934 17.5924 -74.3924 TD 22 -1 11 238
1934324N23299 1934 80 NA CS NOT_NAMED 1934-11-30 00:00:00 TS 17.3000 -74.9000 20 hurdat_atl main 123 123 O_____________ hurdat_atl AL131934 17.3000 -74.9000 TD 20 -1 11 240
1934324N23299 1934 80 NA CS NOT_NAMED 1934-11-30 03:00:00 TS 17.0424 -75.3998 main 131 119 P_____________ AL131934 17.0424 -75.3998 TD 20 -1 11 242
1934324N23299 1934 80 NA CS NOT_NAMED 1934-11-30 06:00:00 TS 16.8000 -75.9000 20 hurdat_atl main 127 124 O_____________ hurdat_atl AL131934 16.8000 -75.9000 TD 20 -1 11 243
1934324N23299 1934 80 NA CS NOT_NAMED 1934-11-30 09:00:00 TS 16.5527 -76.4003 main 145 145 P_____________ AL131934 16.5527 -76.4003 TD 20 -1 11 242
1934324N23299 1934 80 NA CS NOT_NAMED 1934-11-30 12:00:00 TS 16.3000 -76.9000 20 hurdat_atl main 159 O_____________ hurdat_atl AL131934 16.3000 -76.9000 TD 20 -1 11 242

About IBTrACS Database

This database is a web-friendly format of International Best Track Archive for Climate Stewardship (IBTrACS), a global best track data archive curated by NOAA dating back to 1842.

Updated: 2021-10-21